createdAt,value
2019-03-29T00:01:23.087Z,3.13
2019-03-29T00:03:51.759Z,3.08
2019-03-29T00:06:20.448Z,3.05
2019-03-29T00:08:49.130Z,3.00
2019-03-29T00:11:17.798Z,2.97
2019-03-29T00:13:46.467Z,2.88
2019-03-29T00:16:15.158Z,2.81
2019-03-29T00:18:43.840Z,2.86
2019-03-29T00:21:13.158Z,2.81
2019-03-29T00:23:41.966Z,2.84
2019-03-29T00:26:10.635Z,2.80
2019-03-29T00:28:39.404Z,2.68
2019-03-29T00:31:08.171Z,2.79
2019-03-29T00:33:36.778Z,2.70
2019-03-29T00:36:05.460Z,2.78
2019-03-29T00:38:34.148Z,2.70
2019-03-29T00:41:02.872Z,2.87
2019-03-29T00:43:31.551Z,2.97
2019-03-29T00:46:00.232Z,2.89
2019-03-29T00:48:28.894Z,2.83
2019-03-29T00:50:59.017Z,2.81
2019-03-29T00:53:27.840Z,2.81
2019-03-29T00:55:56.499Z,2.87
2019-03-29T00:58:25.207Z,2.89
2019-03-29T01:00:53.891Z,2.98
2019-03-29T01:03:22.602Z,2.88
2019-03-29T01:05:51.268Z,3.01
2019-03-29T01:08:19.949Z,2.93
2019-03-29T01:10:48.919Z,2.91
2019-03-29T01:13:18.024Z,2.86
2019-03-29T01:15:46.699Z,3.06
2019-03-29T01:18:15.374Z,3.05
2019-03-29T01:20:44.049Z,2.96
2019-03-29T01:23:12.721Z,2.85
2019-03-29T01:25:41.386Z,2.79
2019-03-29T01:28:10.059Z,2.90
2019-03-29T01:30:38.746Z,2.89
2019-03-29T01:33:07.443Z,2.87
2019-03-29T01:35:36.347Z,2.92
2019-03-29T01:38:04.986Z,2.93
2019-03-29T01:40:35.077Z,2.90
2019-03-29T01:43:03.837Z,2.84
2019-03-29T01:45:32.522Z,2.73
2019-03-29T01:48:01.195Z,2.66
2019-03-29T01:50:29.944Z,2.62
2019-03-29T01:52:58.612Z,2.62
2019-03-29T01:55:27.286Z,2.49
2019-03-29T01:57:55.959Z,2.47
2019-03-29T02:00:36.098Z,2.38
2019-03-29T02:03:05.651Z,2.17
2019-03-29T02:05:34.333Z,2.04
2019-03-29T02:08:03.022Z,1.88
2019-03-29T02:10:31.688Z,1.93
2019-03-29T02:13:00.344Z,1.93
2019-03-29T02:15:29.042Z,1.91
2019-03-29T02:17:57.761Z,1.88
2019-03-29T02:20:26.433Z,1.85
2019-03-29T02:22:55.103Z,2.01
2019-03-29T02:25:23.845Z,2.07
2019-03-29T02:27:53.016Z,2.07
2019-03-29T02:30:21.685Z,2.02
2019-03-29T02:32:50.408Z,1.98
2019-03-29T02:35:19.069Z,1.93
2019-03-29T02:37:47.755Z,1.92
2019-03-29T02:40:16.408Z,1.93
2019-03-29T02:42:45.085Z,1.95
2019-03-29T02:45:13.957Z,1.84
2019-03-29T02:47:42.634Z,1.92
2019-03-29T02:50:11.502Z,1.91
2019-03-29T02:52:40.189Z,1.87
2019-03-29T02:55:10.406Z,1.92
2019-03-29T02:57:39.089Z,1.86
2019-03-29T03:00:09.755Z,1.69
2019-03-29T03:02:38.457Z,1.70
2019-03-29T03:05:07.929Z,1.69
2019-03-29T03:07:36.608Z,1.59
2019-03-29T03:10:12.071Z,1.67
2019-03-29T03:12:40.743Z,1.66
2019-03-29T03:15:10.239Z,1.56
2019-03-29T03:17:39.473Z,1.46
2019-03-29T03:20:15.463Z,1.46
2019-03-29T03:22:43.346Z,1.32
2019-03-29T03:25:12.214Z,1.50
2019-03-29T03:27:40.884Z,1.52
2019-03-29T03:30:11.530Z,1.42
2019-03-29T03:32:40.280Z,1.39
2019-03-29T03:35:10.523Z,1.31
2019-03-29T03:37:39.170Z,0.66
2019-03-29T03:40:10.158Z,1.29
2019-03-29T03:42:38.796Z,1.27
2019-03-29T03:45:09.080Z,1.22
2019-03-29T03:47:39.489Z,1.23
2019-03-29T03:50:11.076Z,1.08
2019-03-29T03:52:39.739Z,1.15
2019-03-29T03:55:08.411Z,1.03
2019-03-29T03:57:38.897Z,1.04
2019-03-29T04:00:08.771Z,1.14
2019-03-29T04:02:37.442Z,1.13
2019-03-29T04:05:07.641Z,1.14
2019-03-29T04:07:36.309Z,1.02
2019-03-29T04:10:07.261Z,1.13
2019-03-29T04:12:35.928Z,1.28
2019-03-29T04:15:05.506Z,1.31
2019-03-29T04:17:34.176Z,1.43
2019-03-29T04:20:02.854Z,1.50
2019-03-29T04:22:31.568Z,1.45
2019-03-29T04:25:00.510Z,1.42
2019-03-29T04:27:29.557Z,1.44
2019-03-29T04:29:58.264Z,1.54
2019-03-29T04:32:26.950Z,1.63
2019-03-29T04:34:55.674Z,1.63
2019-03-29T04:37:24.335Z,1.76
2019-03-29T04:40:06.270Z,1.82
2019-03-29T04:42:23.460Z,1.82
2019-03-29T04:44:52.136Z,1.84
2019-03-29T04:47:20.815Z,1.88
2019-03-29T04:49:49.511Z,1.89
2019-03-29T04:52:18.191Z,1.94
2019-03-29T04:54:46.864Z,2.04
2019-03-29T04:57:15.528Z,2.22
2019-03-29T04:59:44.211Z,2.26
2019-03-29T05:02:12.883Z,2.37
2019-03-29T05:04:41.555Z,2.32
2019-03-29T05:07:10.236Z,2.45
2019-03-29T05:09:38.915Z,2.58
2019-03-29T05:12:07.577Z,2.85
2019-03-29T05:14:36.294Z,3.11
2019-03-29T05:17:04.914Z,3.16
2019-03-29T05:19:33.626Z,3.34
2019-03-29T05:22:02.308Z,3.52
2019-03-29T05:24:30.970Z,3.69
2019-03-29T05:26:59.650Z,3.87
2019-03-29T05:29:28.333Z,3.92
2019-03-29T05:31:57.019Z,4.08
2019-03-29T05:34:25.695Z,4.19
2019-03-29T05:36:54.462Z,4.18
2019-03-29T05:39:23.161Z,4.26
2019-03-29T05:41:51.852Z,4.40
2019-03-29T05:44:20.525Z,4.61
2019-03-29T05:46:49.195Z,4.85
2019-03-29T05:49:17.874Z,5.06
2019-03-29T05:51:46.545Z,5.22
2019-03-29T05:54:15.316Z,5.56
2019-03-29T05:56:44.011Z,5.87
2019-03-29T05:59:12.705Z,5.93
2019-03-29T06:01:41.383Z,6.55
2019-03-29T06:04:10.055Z,7.10
2019-03-29T06:06:38.750Z,7.35
2019-03-29T06:09:07.440Z,8.16
2019-03-29T06:11:36.102Z,8.87
2019-03-29T06:14:04.879Z,9.45
2019-03-29T06:16:39.096Z,8.76
2019-03-29T06:19:03.998Z,9.01
2019-03-29T06:21:32.678Z,9.74
2019-03-29T06:24:01.422Z,10.46
2019-03-29T06:26:30.100Z,10.72
2019-03-29T06:28:58.775Z,11.41
2019-03-29T06:31:27.479Z,11.75
2019-03-29T06:33:56.223Z,12.26
2019-03-29T06:36:26.911Z,12.21
2019-03-29T06:38:56.798Z,12.89
2019-03-29T06:41:25.619Z,13.18
2019-03-29T06:43:54.306Z,13.72
2019-03-29T06:46:23.066Z,13.90
2019-03-29T06:48:51.766Z,14.08
2019-03-29T06:51:20.449Z,14.17
2019-03-29T06:53:52.382Z,14.98
2019-03-29T06:56:19.581Z,15.07
2019-03-29T06:58:48.261Z,15.30
2019-03-29T07:01:16.954Z,16.05
2019-03-29T07:03:45.651Z,16.39
2019-03-29T07:06:14.398Z,16.52
2019-03-29T07:08:43.101Z,16.87
2019-03-29T07:11:17.570Z,17.09
2019-03-29T07:13:56.262Z,17.80
2019-03-29T07:16:12.834Z,18.53
2019-03-29T07:18:41.510Z,19.00
2019-03-29T07:21:20.875Z,19.43
2019-03-29T07:23:40.793Z,19.70
2019-03-29T07:26:09.554Z,19.99
2019-03-29T07:28:38.249Z,19.19
2019-03-29T07:31:06.930Z,19.64
2019-03-29T07:33:35.662Z,20.22
2019-03-29T07:36:05.692Z,19.59
2019-03-29T07:38:34.490Z,19.73
2019-03-29T07:41:03.273Z,19.86
2019-03-29T07:43:32.107Z,20.54
2019-03-29T07:46:01.359Z,21.07
2019-03-29T07:48:33.347Z,21.12
2019-03-29T07:51:02.037Z,21.03
2019-03-29T07:53:30.866Z,21.03
2019-03-29T07:55:59.609Z,20.91
2019-03-29T07:58:28.450Z,20.91
2019-03-29T08:00:57.196Z,21.20
2019-03-29T08:03:25.883Z,21.11
2019-03-29T08:05:54.619Z,21.72
2019-03-29T08:08:29.097Z,21.23
2019-03-29T08:10:54.239Z,22.78
2019-03-29T08:13:23.241Z,22.52
2019-03-29T08:15:52.011Z,22.65
2019-03-29T08:18:20.681Z,23.09
2019-03-29T08:20:49.424Z,23.74
2019-03-29T08:23:18.258Z,23.86
2019-03-29T08:25:47.029Z,22.94
2019-03-29T08:28:16.179Z,23.83
2019-03-29T08:30:45.280Z,23.43
2019-03-29T08:33:13.939Z,23.75
2019-03-29T08:35:42.694Z,22.56
2019-03-29T08:38:11.558Z,22.27
2019-03-29T08:40:40.296Z,22.12
2019-03-29T08:43:09.193Z,20.62
2019-03-29T08:45:37.898Z,19.15
2019-03-29T08:48:06.980Z,20.96
2019-03-29T08:50:35.633Z,21.94
2019-03-29T08:53:04.428Z,22.42
2019-03-29T08:55:45.158Z,23.88
2019-03-29T08:58:03.661Z,23.92
2019-03-29T09:00:33.388Z,25.38
2019-03-29T09:03:02.242Z,25.55
2019-03-29T09:05:31.126Z,24.23
2019-03-29T09:08:00.169Z,24.88
2019-03-29T09:10:29.235Z,25.55
2019-03-29T09:12:58.075Z,23.88
2019-03-29T09:15:26.856Z,24.44
2019-03-29T09:17:55.583Z,24.28
2019-03-29T09:20:24.418Z,22.86
2019-03-29T09:22:53.214Z,23.49
2019-03-29T09:25:22.002Z,25.38
2019-03-29T09:27:50.914Z,26.27
2019-03-29T09:30:19.719Z,23.87
2019-03-29T09:32:51.291Z,24.46
2019-03-29T09:35:18.934Z,22.07
2019-03-29T09:37:47.832Z,22.77
2019-03-29T09:40:17.491Z,23.87
2019-03-29T09:42:46.200Z,25.01
2019-03-29T09:45:15.169Z,26.16
2019-03-29T09:47:43.854Z,24.66
2019-03-29T09:50:13.327Z,24.04
2019-03-29T09:52:41.972Z,22.92
2019-03-29T09:55:11.112Z,23.68
2019-03-29T09:57:39.788Z,24.88
2019-03-29T10:00:19.307Z,25.04
2019-03-29T10:02:40.645Z,24.89
2019-03-29T10:05:09.515Z,25.24
2019-03-29T10:07:38.347Z,25.20
2019-03-29T10:10:07.604Z,26.75
2019-03-29T10:12:43.444Z,26.98
2019-03-29T10:15:08.401Z,27.40
2019-03-29T10:17:37.145Z,28.82
2019-03-29T10:20:07.651Z,29.18
2019-03-29T10:22:36.475Z,29.98
2019-03-29T10:25:18.636Z,30.17
2019-03-29T10:27:37.191Z,29.70
2019-03-29T10:30:07.951Z,30.74
2019-03-29T10:32:36.639Z,31.39
2019-03-29T10:35:10.236Z,28.23
2019-03-29T10:37:38.937Z,28.43
2019-03-29T10:40:07.708Z,29.43
2019-03-29T10:42:39.745Z,29.12
2019-03-29T10:45:06.912Z,29.71
2019-03-29T10:47:43.549Z,29.66
2019-03-29T10:50:07.469Z,29.74
2019-03-29T10:52:36.199Z,28.56
2019-03-29T10:55:05.786Z,27.96
2019-03-29T10:57:34.498Z,24.40
2019-03-29T11:00:04.622Z,26.50
2019-03-29T11:02:33.408Z,24.85
2019-03-29T11:05:02.154Z,24.33
2019-03-29T11:07:30.822Z,25.36
2019-03-29T11:10:00.498Z,25.85
2019-03-29T11:12:29.182Z,25.84
2019-03-29T11:14:58.194Z,24.27
2019-03-29T11:17:26.919Z,24.79
2019-03-29T11:19:55.697Z,25.13
2019-03-29T11:22:24.500Z,25.02
2019-03-29T11:24:53.224Z,25.86
2019-03-29T11:27:22.669Z,25.07
2019-03-29T11:29:51.682Z,26.77
2019-03-29T11:32:20.700Z,24.82
2019-03-29T11:34:49.389Z,22.58
2019-03-29T11:37:18.228Z,24.79
2019-03-29T11:39:46.939Z,23.94
2019-03-29T11:42:15.652Z,24.79
2019-03-29T11:44:44.309Z,27.13
2019-03-29T11:47:14.791Z,27.47
2019-03-29T11:49:44.271Z,26.12
2019-03-29T11:52:13.174Z,27.07
2019-03-29T11:54:42.061Z,26.49
2019-03-29T11:57:12.159Z,27.75
2019-03-29T11:59:41.025Z,25.52
2019-03-29T12:02:09.861Z,26.58
2019-03-29T12:04:38.628Z,24.99
2019-03-29T12:07:07.586Z,25.59
2019-03-29T12:09:36.590Z,27.82
2019-03-29T12:12:05.535Z,26.74
2019-03-29T12:14:34.533Z,24.72
2019-03-29T12:17:03.184Z,24.83
2019-03-29T12:19:32.029Z,24.47
2019-03-29T12:22:00.779Z,27.14
2019-03-29T12:24:29.577Z,27.18
2019-03-29T12:26:58.234Z,25.64
2019-03-29T12:29:28.441Z,27.18
2019-03-29T12:31:57.121Z,27.10
2019-03-29T12:34:25.902Z,28.31
2019-03-29T12:36:54.633Z,28.82
2019-03-29T12:39:23.319Z,29.20
2019-03-29T12:41:52.507Z,27.49
2019-03-29T12:44:21.377Z,27.31
2019-03-29T12:46:49.996Z,26.70
2019-03-29T12:49:18.723Z,27.15
2019-03-29T12:51:47.407Z,25.52
2019-03-29T12:54:16.536Z,23.05
2019-03-29T12:56:45.536Z,21.84
2019-03-29T12:59:14.325Z,24.82
2019-03-29T13:01:43.019Z,25.35
2019-03-29T13:04:12.030Z,24.70
2019-03-29T13:06:40.701Z,24.92
2019-03-29T13:09:09.484Z,24.75
2019-03-29T13:11:38.160Z,22.57
2019-03-29T13:14:10.682Z,22.21
2019-03-29T13:16:37.414Z,20.72
2019-03-29T13:19:06.288Z,22.21
2019-03-29T13:21:35.072Z,21.49
2019-03-29T13:24:04.167Z,22.58
2019-03-29T13:26:32.865Z,23.54
2019-03-29T13:29:01.922Z,25.32
2019-03-29T13:31:30.719Z,20.98
2019-03-29T13:33:59.590Z,21.17
2019-03-29T13:36:28.288Z,22.49
2019-03-29T13:38:57.050Z,24.17
2019-03-29T13:41:25.734Z,22.38
2019-03-29T13:43:54.432Z,20.14
2019-03-29T13:46:23.228Z,21.01
2019-03-29T13:48:52.348Z,23.68
2019-03-29T13:51:21.173Z,22.49
2019-03-29T13:53:50.025Z,21.61
2019-03-29T13:56:18.999Z,20.19
2019-03-29T13:58:47.809Z,17.88
2019-03-29T14:01:16.585Z,19.50
2019-03-29T14:03:45.387Z,18.31
2019-03-29T14:06:19.021Z,17.36
2019-03-29T14:08:47.843Z,18.99
2019-03-29T14:11:16.725Z,18.65
2019-03-29T14:13:45.678Z,16.91
2019-03-29T14:16:14.381Z,18.95
2019-03-29T14:18:43.360Z,19.18
2019-03-29T14:21:12.116Z,18.30
2019-03-29T14:23:40.849Z,20.39
2019-03-29T14:26:10.090Z,20.88
2019-03-29T14:28:38.885Z,21.13
2019-03-29T14:31:07.627Z,20.40
2019-03-29T14:33:36.546Z,21.40
2019-03-29T14:36:05.696Z,19.76
2019-03-29T14:38:34.539Z,16.70
2019-03-29T14:41:03.391Z,18.79
2019-03-29T14:43:32.290Z,19.25
2019-03-29T14:46:01.083Z,18.37
2019-03-29T14:48:29.906Z,16.33
2019-03-29T14:50:58.823Z,16.23
2019-03-29T14:53:27.640Z,17.16
2019-03-29T14:55:58.235Z,18.00
2019-03-29T14:58:27.116Z,17.25
2019-03-29T15:00:55.889Z,18.15
2019-03-29T15:03:24.668Z,18.47
2019-03-29T15:05:53.547Z,18.02
2019-03-29T15:08:22.965Z,19.16
2019-03-29T15:10:51.641Z,19.30
2019-03-29T15:13:20.427Z,18.53
2019-03-29T15:15:49.099Z,18.95
2019-03-29T15:18:17.847Z,19.91
2019-03-29T15:20:53.207Z,20.76
2019-03-29T15:23:17.200Z,17.07
2019-03-29T15:25:45.956Z,15.24
2019-03-29T15:28:15.498Z,13.91
2019-03-29T15:30:44.539Z,13.37
2019-03-29T15:33:13.279Z,12.93
2019-03-29T15:35:42.242Z,12.64
2019-03-29T15:38:10.985Z,12.21
2019-03-29T15:40:39.685Z,12.10
2019-03-29T15:43:08.444Z,11.93
2019-03-29T15:45:37.187Z,11.80
2019-03-29T15:48:05.865Z,11.77
2019-03-29T15:50:34.756Z,11.70
2019-03-29T15:53:03.538Z,11.50
2019-03-29T15:55:32.243Z,11.27
2019-03-29T15:58:01.195Z,11.06
2019-03-29T16:00:29.907Z,10.98
2019-03-29T16:02:58.622Z,10.83
2019-03-29T16:05:27.615Z,10.72
2019-03-29T16:07:56.313Z,10.69
2019-03-29T16:10:24.997Z,10.56
2019-03-29T16:12:55.285Z,10.45
2019-03-29T16:15:34.880Z,10.38
2019-03-29T16:17:54.637Z,10.30
2019-03-29T16:20:23.322Z,10.20
2019-03-29T16:22:52.017Z,10.13
2019-03-29T16:25:20.714Z,10.06
2019-03-29T16:27:49.582Z,9.95
2019-03-29T16:30:18.468Z,9.95
2019-03-29T16:32:47.161Z,9.88
2019-03-29T16:35:15.824Z,9.84
2019-03-29T16:37:56.669Z,9.76
2019-03-29T16:40:14.961Z,9.69
2019-03-29T16:42:43.769Z,9.60
2019-03-29T16:45:12.432Z,9.51
2019-03-29T16:47:41.192Z,9.44
2019-03-29T16:50:10.267Z,9.37
2019-03-29T16:52:38.957Z,9.29
2019-03-29T16:55:13.618Z,9.28
2019-03-29T16:57:39.350Z,9.23
2019-03-29T17:00:12.447Z,9.17
2019-03-29T17:02:40.703Z,9.09
2019-03-29T17:05:09.771Z,8.99
2019-03-29T17:07:38.448Z,8.97
2019-03-29T17:10:08.752Z,8.93
2019-03-29T17:12:37.541Z,8.84
2019-03-29T17:15:06.544Z,8.76
2019-03-29T17:17:35.727Z,8.79
2019-03-29T17:20:06.816Z,8.74
2019-03-29T17:22:36.602Z,8.70
2019-03-29T17:25:07.260Z,8.65
2019-03-29T17:27:35.937Z,8.61
2019-03-29T17:30:06.681Z,8.56
2019-03-29T17:32:35.356Z,8.54
2019-03-29T17:35:06.036Z,8.45
2019-03-29T17:37:34.701Z,8.40
2019-03-29T17:40:04.290Z,8.40
2019-03-29T17:42:32.975Z,8.32
2019-03-29T17:45:01.689Z,8.23
2019-03-29T17:47:30.360Z,8.20
2019-03-29T17:49:59.057Z,8.18
2019-03-29T17:52:27.734Z,8.13
2019-03-29T17:54:56.393Z,7.91
2019-03-29T17:57:25.086Z,8.13
2019-03-29T17:59:53.744Z,8.08
2019-03-29T18:02:22.532Z,8.03
2019-03-29T18:04:52.861Z,8.01
2019-03-29T18:07:21.550Z,7.93
2019-03-29T18:09:50.228Z,7.94
2019-03-29T18:12:18.893Z,7.98
2019-03-29T18:14:47.565Z,7.99
2019-03-29T18:17:16.262Z,7.95
2019-03-29T18:19:44.958Z,7.86
2019-03-29T18:22:13.637Z,7.84
2019-03-29T18:24:42.322Z,7.75
2019-03-29T18:27:13.317Z,7.72
2019-03-29T18:29:41.779Z,7.68
2019-03-29T18:32:10.960Z,7.55
2019-03-29T18:34:41.645Z,7.56
2019-03-29T18:37:10.955Z,7.60
2019-03-29T18:39:39.613Z,7.60
2019-03-29T18:42:08.313Z,7.61
2019-03-29T18:44:37.001Z,7.61
2019-03-29T18:47:05.668Z,7.52
2019-03-29T18:49:34.330Z,7.49
2019-03-29T18:52:03.082Z,7.49
2019-03-29T18:54:31.756Z,7.48
2019-03-29T18:57:00.567Z,7.49
2019-03-29T18:59:29.233Z,7.32
2019-03-29T19:01:57.950Z,7.11
2019-03-29T19:04:26.602Z,6.97
2019-03-29T19:06:55.303Z,7.06
2019-03-29T19:09:23.992Z,6.94
2019-03-29T19:11:52.675Z,6.88
2019-03-29T19:14:21.380Z,6.72
2019-03-29T19:16:58.905Z,6.63
2019-03-29T19:19:20.499Z,6.56
2019-03-29T19:21:49.268Z,6.39
2019-03-29T19:24:17.966Z,6.42
2019-03-29T19:26:46.640Z,6.38
2019-03-29T19:29:15.317Z,6.55
2019-03-29T19:31:43.997Z,6.47
2019-03-29T19:34:12.710Z,6.58
2019-03-29T19:36:41.477Z,6.57
2019-03-29T19:39:10.156Z,6.65
2019-03-29T19:41:38.883Z,6.54
2019-03-29T19:44:07.559Z,6.41
2019-03-29T19:46:36.235Z,6.31
2019-03-29T19:49:04.933Z,6.34
2019-03-29T19:51:33.606Z,6.28
2019-03-29T19:54:07.602Z,6.15
2019-03-29T19:56:32.828Z,6.10
2019-03-29T19:59:01.529Z,5.97
2019-03-29T20:01:30.312Z,5.92
2019-03-29T20:03:58.983Z,5.97
2019-03-29T20:06:27.680Z,5.90
2019-03-29T20:08:56.476Z,5.91
2019-03-29T20:11:25.159Z,5.82
2019-03-29T20:13:53.830Z,5.82
2019-03-29T20:16:22.515Z,5.84
2019-03-29T20:18:51.230Z,5.83
2019-03-29T20:21:19.897Z,5.83
2019-03-29T20:23:48.600Z,5.81
2019-03-29T20:26:17.269Z,5.81
2019-03-29T20:28:45.943Z,5.85
2019-03-29T20:31:14.630Z,5.86
2019-03-29T20:33:43.324Z,5.76
2019-03-29T20:36:12.013Z,5.68
2019-03-29T20:38:40.718Z,5.57
2019-03-29T20:41:09.407Z,5.50
2019-03-29T20:43:38.076Z,5.41
2019-03-29T20:46:06.789Z,5.33
2019-03-29T20:48:35.453Z,5.46
2019-03-29T20:51:04.227Z,5.51
2019-03-29T20:53:32.907Z,5.43
2019-03-29T20:56:01.592Z,5.41
2019-03-29T20:58:30.257Z,5.39
2019-03-29T21:00:59.265Z,5.28
2019-03-29T21:03:28.029Z,5.23
2019-03-29T21:05:56.706Z,5.26
2019-03-29T21:08:25.405Z,5.21
2019-03-29T21:10:56.130Z,5.32
2019-03-29T21:13:24.461Z,5.30
2019-03-29T21:15:53.158Z,5.39
2019-03-29T21:18:21.846Z,5.36
2019-03-29T21:20:58.153Z,5.31
2019-03-29T21:23:26.839Z,5.13
2019-03-29T21:25:55.522Z,5.23
2019-03-29T21:28:24.212Z,5.11
2019-03-29T21:30:52.898Z,5.13
2019-03-29T21:33:21.663Z,4.99
2019-03-29T21:35:50.328Z,5.05
2019-03-29T21:38:19.074Z,5.14
2019-03-29T21:40:48.017Z,5.21
2019-03-29T21:43:16.684Z,5.27
2019-03-29T21:45:45.461Z,5.30
2019-03-29T21:48:28.156Z,5.26
2019-03-29T21:50:44.976Z,5.24
2019-03-29T21:53:13.607Z,5.36
2019-03-29T21:55:42.529Z,5.36
2019-03-29T21:58:11.173Z,5.50
2019-03-29T22:00:39.850Z,5.51
2019-03-29T22:03:08.509Z,5.42
2019-03-29T22:05:37.182Z,5.18
2019-03-29T22:08:05.860Z,5.12
2019-03-29T22:10:34.555Z,5.13
2019-03-29T22:13:03.247Z,5.21
2019-03-29T22:15:31.932Z,5.22
2019-03-29T22:18:00.612Z,5.22
2019-03-29T22:20:29.300Z,5.11
2019-03-29T22:22:57.983Z,5.23
2019-03-29T22:25:26.660Z,5.16
2019-03-29T22:27:55.318Z,5.16
2019-03-29T22:30:26.980Z,5.25
2019-03-29T22:32:59.147Z,5.31
2019-03-29T22:35:27.815Z,5.39
2019-03-29T22:37:56.714Z,5.36
2019-03-29T22:40:29.956Z,5.37
2019-03-29T22:42:58.642Z,5.46
2019-03-29T22:45:27.720Z,5.50
2019-03-29T22:47:59.455Z,5.54
2019-03-29T22:50:28.135Z,5.59
2019-03-29T22:52:56.913Z,5.64
2019-03-29T22:55:25.640Z,5.73
2019-03-29T22:57:57.225Z,5.68
2019-03-29T23:00:31.358Z,5.48
2019-03-29T23:03:00.129Z,5.67
2019-03-29T23:05:28.813Z,5.76
2019-03-29T23:07:57.528Z,5.78
2019-03-29T23:10:26.219Z,5.77
2019-03-29T23:12:54.905Z,5.84
2019-03-29T23:15:23.575Z,5.42
2019-03-29T23:17:52.264Z,5.84
2019-03-29T23:20:20.939Z,5.80
2019-03-29T23:22:49.629Z,5.67
2019-03-29T23:25:18.300Z,5.64
2019-03-29T23:27:47.195Z,5.69
2019-03-29T23:30:16.622Z,5.67
2019-03-29T23:32:45.314Z,5.63
2019-03-29T23:35:13.989Z,5.63
2019-03-29T23:37:42.770Z,5.67
2019-03-29T23:40:11.638Z,5.73
2019-03-29T23:42:40.929Z,5.77
2019-03-29T23:45:09.600Z,5.82
2019-03-29T23:47:38.277Z,5.90
2019-03-29T23:50:07.039Z,5.97
2019-03-29T23:52:35.714Z,5.98
2019-03-29T23:55:05.493Z,5.95
2019-03-29T23:57:34.180Z,6.01
